Ava, Ohio
Current Conditions -  °F | °C
As of 5:53 PM on Sunday 21 Dec 2014 (Local Time) from KZZV Reporting Station
Clear Clear  
Wind Chill: 30°   Ceiling: Unl
Heat Index: 30°   Visibility: 8mi
Dew Point: 23°   Wind: 3mph
Humidity: 75%   Direction: 50°NE
Pressure: 30.22"   Gusts: NA
Location:  39.83°N, 81.57°W
Report Text: KZZV 212253Z AUTO 05003KT 8SM CLR M01/M05 A3022 RMK AO2 SLP242 T10111050 $
Loading
Personal Weather Stations






























Interactive Weather Map New forecast layout! Learn more

10-Day Weather Forecast

Advertisements
Track Severe Weather on mobile